createdAt,value
2017-12-17T00:01:54.240Z,26.50
2017-12-17T00:04:21.710Z,22.35
2017-12-17T00:06:49.900Z,23.58
2017-12-17T00:09:17.352Z,28.77
2017-12-17T00:11:44.780Z,25.17
2017-12-17T00:14:12.266Z,20.62
2017-12-17T00:16:39.886Z,20.58
2017-12-17T00:19:07.301Z,19.70
2017-12-17T00:21:34.748Z,22.80
2017-12-17T00:24:02.734Z,22.35
2017-12-17T00:26:30.282Z,20.62
2017-12-17T00:28:57.745Z,19.90
2017-12-17T00:31:25.176Z,19.05
2017-12-17T00:33:52.612Z,21.67
2017-12-17T00:36:20.194Z,20.60
2017-12-17T00:38:47.723Z,21.55
2017-12-17T00:41:15.165Z,20.27
2017-12-17T00:43:42.595Z,23.38
2017-12-17T00:46:10.144Z,20.42
2017-12-17T00:48:37.585Z,17.20
2017-12-17T00:51:05.027Z,14.55
2017-12-17T00:53:32.481Z,22.17
2017-12-17T00:56:00.040Z,16.87
2017-12-17T00:58:28.243Z,18.75
2017-12-17T01:00:55.696Z,19.42
2017-12-17T01:03:23.128Z,19.00
2017-12-17T01:05:50.564Z,22.13
2017-12-17T01:08:18.072Z,18.17
2017-12-17T01:10:46.272Z,14.55
2017-12-17T01:13:13.768Z,24.20
2017-12-17T01:15:41.209Z,21.65
2017-12-17T01:18:08.644Z,18.55
2017-12-17T01:20:36.075Z,16.17
2017-12-17T01:23:03.522Z,18.52
2017-12-17T01:25:30.960Z,17.35
2017-12-17T01:27:58.399Z,21.85
2017-12-17T01:30:25.864Z,21.23
2017-12-17T01:32:53.316Z,23.45
2017-12-17T01:35:21.517Z,16.42
2017-12-17T01:37:48.987Z,19.50
2017-12-17T01:40:16.451Z,21.15
2017-12-17T01:42:43.896Z,17.77
2017-12-17T01:45:11.337Z,21.73
2017-12-17T01:47:38.781Z,18.50
2017-12-17T01:50:06.227Z,16.58
2017-12-17T01:52:33.653Z,19.90
2017-12-17T01:55:01.094Z,16.87
2017-12-17T01:57:28.528Z,21.52
2017-12-17T01:59:56.000Z,18.67
2017-12-17T02:02:24.205Z,21.85
2017-12-17T02:04:51.653Z,15.82
2017-12-17T02:07:19.086Z,16.05
2017-12-17T02:09:46.528Z,19.27
2017-12-17T02:12:13.961Z,20.15
2017-12-17T02:14:41.403Z,21.98
2017-12-17T02:17:08.833Z,20.10
2017-12-17T02:19:37.049Z,18.90
2017-12-17T02:22:04.490Z,17.58
2017-12-17T02:24:31.921Z,21.75
2017-12-17T02:26:59.365Z,20.75
2017-12-17T02:29:26.849Z,22.55
2017-12-17T02:31:54.245Z,20.67
2017-12-17T02:34:21.681Z,20.62
2017-12-17T02:36:49.212Z,19.85
2017-12-17T02:39:16.645Z,18.10
2017-12-17T02:41:44.088Z,16.95
2017-12-17T02:44:11.521Z,22.55
2017-12-17T02:46:38.965Z,22.50
2017-12-17T02:49:06.404Z,19.30
2017-12-17T02:51:34.608Z,20.98
2017-12-17T02:54:02.049Z,20.08
2017-12-17T02:56:30.261Z,23.40
2017-12-17T02:58:58.472Z,20.65
2017-12-17T03:01:25.938Z,19.77
2017-12-17T03:03:53.368Z,25.25
2017-12-17T03:06:20.839Z,25.67
2017-12-17T03:08:48.276Z,17.73
2017-12-17T03:11:15.720Z,21.80
2017-12-17T03:13:43.252Z,24.95
2017-12-17T03:16:10.698Z,16.83
2017-12-17T03:18:38.233Z,23.00
2017-12-17T03:21:05.689Z,20.75
2017-12-17T03:23:33.120Z,20.95
2017-12-17T03:26:00.561Z,19.80
2017-12-17T03:28:28.040Z,17.25
2017-12-17T03:30:56.242Z,20.02
2017-12-17T03:33:24.696Z,19.85
2017-12-17T03:35:52.137Z,20.23
2017-12-17T03:38:19.580Z,20.77
2017-12-17T03:40:47.070Z,21.55
2017-12-17T03:43:14.520Z,22.55
2017-12-17T03:45:41.956Z,21.52
2017-12-17T03:48:10.892Z,22.20
2017-12-17T03:50:38.338Z,21.73
2017-12-17T03:53:05.888Z,21.42
2017-12-17T03:55:33.324Z,19.02
2017-12-17T03:58:00.758Z,18.70
2017-12-17T04:00:28.196Z,18.27
2017-12-17T04:02:55.624Z,21.15
2017-12-17T04:05:23.075Z,19.83
2017-12-17T04:07:50.528Z,21.15
2017-12-17T04:10:17.960Z,20.95
2017-12-17T04:12:45.394Z,19.30
2017-12-17T04:15:12.832Z,21.12
2017-12-17T04:17:40.340Z,18.55
2017-12-17T04:20:07.885Z,20.50
2017-12-17T04:22:35.319Z,19.70
2017-12-17T04:25:02.761Z,23.08
2017-12-17T04:27:30.200Z,24.12
2017-12-17T04:29:57.648Z,22.10
2017-12-17T04:32:25.097Z,19.62
2017-12-17T04:34:52.557Z,22.08
2017-12-17T04:37:20.090Z,21.30
2017-12-17T04:39:47.603Z,24.83
2017-12-17T04:42:15.040Z,19.50
2017-12-17T04:44:42.480Z,18.85
2017-12-17T04:47:09.924Z,18.62
2017-12-17T04:49:37.371Z,19.20
2017-12-17T04:52:04.848Z,19.20
2017-12-17T04:54:32.405Z,17.98
2017-12-17T04:56:59.946Z,18.67
2017-12-17T04:59:27.506Z,18.90
2017-12-17T05:01:55.032Z,14.90
2017-12-17T05:04:22.491Z,14.95
2017-12-17T05:06:50.699Z,15.65
2017-12-17T05:09:18.142Z,20.02
2017-12-17T05:11:45.586Z,16.10
2017-12-17T05:14:13.026Z,17.73
2017-12-17T05:16:40.520Z,17.90
2017-12-17T05:19:08.719Z,18.90
2017-12-17T05:21:36.152Z,17.12
2017-12-17T05:24:03.593Z,15.65
2017-12-17T05:26:31.021Z,18.27
2017-12-17T05:28:59.247Z,23.52
2017-12-17T05:31:26.680Z,22.90
2017-12-17T05:33:54.120Z,14.65
2017-12-17T05:36:21.550Z,15.63
2017-12-17T05:38:49.004Z,16.37
2017-12-17T05:41:16.439Z,13.70
2017-12-17T05:43:43.885Z,17.58
2017-12-17T05:46:11.316Z,14.25
2017-12-17T05:48:39.754Z,16.37
2017-12-17T05:51:07.184Z,17.40
2017-12-17T05:53:34.628Z,17.30
2017-12-17T05:56:02.832Z,18.58
2017-12-17T05:58:30.405Z,14.15
2017-12-17T06:00:57.840Z,16.45
2017-12-17T06:03:25.277Z,13.10
2017-12-17T06:05:52.831Z,13.52
2017-12-17T06:08:20.266Z,12.25
2017-12-17T06:10:47.714Z,12.07
2017-12-17T06:13:15.146Z,13.18
2017-12-17T06:15:42.591Z,15.77
2017-12-17T06:18:10.044Z,11.30
2017-12-17T06:20:37.488Z,14.13
2017-12-17T06:23:04.976Z,12.05
2017-12-17T06:25:32.412Z,13.23
2017-12-17T06:27:59.844Z,14.95
2017-12-17T06:30:28.049Z,14.98
2017-12-17T06:32:55.520Z,11.88
2017-12-17T06:35:22.969Z,13.68
2017-12-17T06:37:50.505Z,12.50
2017-12-17T06:40:18.767Z,11.38
2017-12-17T06:42:46.208Z,12.65
2017-12-17T06:45:13.660Z,11.63
2017-12-17T06:47:41.100Z,14.00
2017-12-17T06:50:08.536Z,14.48
2017-12-17T06:52:35.973Z,13.45
2017-12-17T06:55:03.421Z,14.50
2017-12-17T06:57:30.885Z,11.70
2017-12-17T06:59:58.314Z,13.30
2017-12-17T07:02:25.771Z,13.48
2017-12-17T07:04:53.981Z,14.85
2017-12-17T07:07:21.424Z,10.88
2017-12-17T07:09:48.858Z,15.05
2017-12-17T07:12:16.298Z,12.88
2017-12-17T07:14:43.734Z,12.40
2017-12-17T07:17:11.196Z,13.02
2017-12-17T07:19:38.632Z,15.27
2017-12-17T07:22:06.069Z,12.90
2017-12-17T07:24:33.522Z,16.23
2017-12-17T07:27:01.098Z,13.10
2017-12-17T07:29:28.552Z,12.70
2017-12-17T07:31:55.980Z,14.48
2017-12-17T07:34:23.426Z,22.30
2017-12-17T07:36:50.864Z,13.18
2017-12-17T07:39:18.317Z,15.80
2017-12-17T07:41:45.747Z,14.50
2017-12-17T07:44:13.229Z,13.62
2017-12-17T07:46:41.430Z,13.10
2017-12-17T07:49:08.872Z,11.38
2017-12-17T07:51:36.344Z,13.18
2017-12-17T07:54:03.772Z,14.40
2017-12-17T07:56:31.340Z,10.80
2017-12-17T07:58:58.773Z,10.30
2017-12-17T08:01:26.319Z,10.40
2017-12-17T08:03:53.759Z,10.93
2017-12-17T08:06:21.216Z,9.52
2017-12-17T08:08:48.672Z,12.32
2017-12-17T08:11:16.874Z,9.80
2017-12-17T08:13:44.300Z,9.50
2017-12-17T08:16:11.740Z,10.20
2017-12-17T08:18:39.234Z,9.30
2017-12-17T08:21:06.682Z,12.05
2017-12-17T08:23:34.224Z,10.20
2017-12-17T08:26:01.672Z,10.88
2017-12-17T08:28:29.115Z,10.52
2017-12-17T08:30:56.597Z,13.25
2017-12-17T08:33:24.789Z,12.60
2017-12-17T08:35:52.226Z,10.18
2017-12-17T08:38:19.701Z,10.98
2017-12-17T08:40:47.168Z,10.65
2017-12-17T08:43:15.361Z,9.98
2017-12-17T08:45:42.795Z,14.02
2017-12-17T08:48:10.272Z,9.18
2017-12-17T08:50:37.708Z,9.35
2017-12-17T08:53:05.184Z,8.57
2017-12-17T08:55:32.597Z,9.98
2017-12-17T08:58:00.042Z,11.50
2017-12-17T09:00:27.468Z,10.05
2017-12-17T09:02:54.955Z,9.95
2017-12-17T09:05:22.412Z,10.77
2017-12-17T09:07:50.630Z,10.40
2017-12-17T09:10:18.072Z,9.30
2017-12-17T09:12:45.607Z,11.65
2017-12-17T09:15:13.152Z,11.00
2017-12-17T09:17:40.573Z,13.18
2017-12-17T09:20:08.005Z,9.40
2017-12-17T09:22:35.504Z,13.20
2017-12-17T09:25:03.058Z,10.80
2017-12-17T09:27:31.298Z,9.32
2017-12-17T09:29:58.743Z,10.10
2017-12-17T09:32:26.204Z,9.23
2017-12-17T09:34:53.736Z,7.45
2017-12-17T09:37:21.942Z,9.38
2017-12-17T09:39:50.199Z,9.45
2017-12-17T09:42:17.600Z,8.32
2017-12-17T09:44:45.032Z,9.90
2017-12-17T09:47:12.483Z,8.98
2017-12-17T09:49:39.928Z,9.50
2017-12-17T09:52:07.367Z,9.60
2017-12-17T09:54:34.928Z,9.43
2017-12-17T09:57:02.364Z,9.48
2017-12-17T09:59:29.803Z,8.70
2017-12-17T10:01:57.350Z,10.10
2017-12-17T10:04:24.796Z,26.58
2017-12-17T10:06:52.261Z,9.63
2017-12-17T10:09:20.464Z,11.00
2017-12-17T10:11:48.040Z,9.55
2017-12-17T10:14:15.478Z,9.55
2017-12-17T10:16:42.920Z,8.38
2017-12-17T10:19:10.352Z,9.40
2017-12-17T10:21:37.809Z,8.60
2017-12-17T10:24:05.321Z,8.35
2017-12-17T10:26:32.744Z,10.30
2017-12-17T10:29:00.180Z,8.13
2017-12-17T10:31:27.621Z,9.45
2017-12-17T10:33:55.148Z,8.10
2017-12-17T10:36:22.538Z,9.30
2017-12-17T10:38:50.017Z,8.02
2017-12-17T10:41:17.548Z,9.07
2017-12-17T10:43:44.988Z,7.50
2017-12-17T10:46:13.326Z,7.40
2017-12-17T10:48:40.843Z,8.70
2017-12-17T10:51:09.020Z,8.23
2017-12-17T10:53:36.447Z,8.73
2017-12-17T10:56:05.870Z,8.13
2017-12-17T10:58:33.336Z,9.85
2017-12-17T11:01:00.776Z,10.57
2017-12-17T11:03:28.217Z,9.55
2017-12-17T11:05:55.677Z,13.02
2017-12-17T11:08:23.212Z,10.90
2017-12-17T11:10:50.661Z,8.60
2017-12-17T11:13:18.106Z,9.88
2017-12-17T11:15:45.584Z,12.82
2017-12-17T11:18:13.018Z,8.45
2017-12-17T11:20:41.224Z,8.48
2017-12-17T11:23:08.685Z,10.05
2017-12-17T11:25:36.113Z,7.60
2017-12-17T11:28:03.557Z,8.40
2017-12-17T11:30:31.023Z,11.20
2017-12-17T11:32:58.463Z,9.93
2017-12-17T11:35:25.890Z,12.50
2017-12-17T11:37:53.341Z,9.30
2017-12-17T11:40:20.918Z,11.85
2017-12-17T11:42:49.112Z,8.88
2017-12-17T11:45:16.589Z,12.80
2017-12-17T11:47:44.031Z,9.48
2017-12-17T11:50:11.498Z,14.02
2017-12-17T11:52:38.946Z,8.10
2017-12-17T11:55:07.137Z,10.40
2017-12-17T11:57:34.627Z,12.05
2017-12-17T12:00:02.073Z,13.13
2017-12-17T12:02:29.504Z,8.95
2017-12-17T12:04:56.947Z,8.85
2017-12-17T12:07:24.376Z,8.02
2017-12-17T12:09:51.821Z,10.18
2017-12-17T12:12:19.265Z,8.85
2017-12-17T12:14:46.746Z,12.50
2017-12-17T12:17:14.173Z,8.77
2017-12-17T12:19:41.839Z,10.25
2017-12-17T12:22:10.051Z,13.77
2017-12-17T12:24:37.535Z,14.18
2017-12-17T12:27:05.739Z,9.13
2017-12-17T12:29:33.281Z,9.70
2017-12-17T12:32:00.710Z,12.32
2017-12-17T12:34:28.144Z,12.30
2017-12-17T12:36:56.356Z,9.20
2017-12-17T12:39:24.415Z,10.05
2017-12-17T12:41:51.864Z,8.65
2017-12-17T12:44:19.317Z,15.05
2017-12-17T12:46:46.755Z,7.65
2017-12-17T12:49:15.242Z,11.65
2017-12-17T12:51:42.660Z,14.98
2017-12-17T12:54:10.131Z,8.52
2017-12-17T12:56:38.473Z,9.80
2017-12-17T12:59:05.904Z,9.93
2017-12-17T13:01:33.361Z,9.55
2017-12-17T13:04:00.835Z,13.57
2017-12-17T13:06:29.055Z,10.30
2017-12-17T13:08:56.496Z,10.38
2017-12-17T13:11:23.969Z,9.75
2017-12-17T13:13:51.451Z,9.70
2017-12-17T13:16:18.878Z,8.10
2017-12-17T13:18:46.323Z,7.10
2017-12-17T13:21:13.795Z,7.50
2017-12-17T13:23:41.227Z,9.93
2017-12-17T13:26:08.648Z,7.07
2017-12-17T13:28:36.085Z,8.40
2017-12-17T13:31:03.600Z,11.20
2017-12-17T13:33:31.027Z,8.73
2017-12-17T13:35:58.453Z,9.43
2017-12-17T13:38:25.899Z,8.57
2017-12-17T13:40:53.408Z,10.48
2017-12-17T13:43:20.849Z,8.68
2017-12-17T13:45:48.318Z,11.90
2017-12-17T13:48:15.827Z,8.10
2017-12-17T13:50:44.015Z,8.95
2017-12-17T13:53:11.481Z,8.02
2017-12-17T13:55:38.919Z,8.20
2017-12-17T13:58:06.341Z,9.88
2017-12-17T14:00:33.785Z,7.95
2017-12-17T14:03:01.398Z,10.07
2017-12-17T14:05:29.595Z,6.78
2017-12-17T14:07:57.030Z,9.27
2017-12-17T14:10:24.506Z,7.95
2017-12-17T14:12:51.921Z,8.68
2017-12-17T14:15:19.369Z,8.48
2017-12-17T14:17:46.799Z,9.10
2017-12-17T14:20:14.264Z,8.30
2017-12-17T14:22:41.695Z,9.25
2017-12-17T14:25:09.130Z,8.55
2017-12-17T14:27:36.570Z,9.40
2017-12-17T14:30:04.042Z,7.62
2017-12-17T14:32:31.639Z,8.40
2017-12-17T14:34:59.902Z,9.63
2017-12-17T14:37:28.226Z,7.60
2017-12-17T14:39:55.771Z,8.35
2017-12-17T14:42:23.205Z,8.98
2017-12-17T14:44:50.671Z,8.48
2017-12-17T14:47:18.106Z,11.32
2017-12-17T14:49:45.702Z,12.93
2017-12-17T14:52:13.227Z,10.55
2017-12-17T14:54:41.455Z,13.02
2017-12-17T14:57:08.934Z,13.23
2017-12-17T14:59:36.316Z,8.93
2017-12-17T15:02:05.273Z,13.00
2017-12-17T15:04:32.730Z,13.30
2017-12-17T15:07:00.196Z,14.32
2017-12-17T15:09:27.647Z,11.23
2017-12-17T15:11:55.091Z,13.40
2017-12-17T15:14:22.522Z,13.07
2017-12-17T15:16:49.965Z,14.25
2017-12-17T15:19:18.157Z,8.80
2017-12-17T15:21:46.442Z,8.13
2017-12-17T15:24:13.868Z,10.50
2017-12-17T15:26:41.308Z,11.20
2017-12-17T15:29:08.854Z,8.32
2017-12-17T15:31:37.125Z,7.97
2017-12-17T15:34:04.589Z,9.80
2017-12-17T15:36:32.012Z,9.85
2017-12-17T15:38:59.569Z,8.45
2017-12-17T15:41:27.081Z,31.75
2017-12-17T15:43:54.536Z,16.77
2017-12-17T15:46:21.985Z,14.87
2017-12-17T15:48:49.519Z,9.13
2017-12-17T15:51:17.759Z,7.57
2017-12-17T15:53:45.184Z,9.35
2017-12-17T15:56:12.612Z,8.93
2017-12-17T15:58:40.052Z,8.60
2017-12-17T16:01:07.487Z,10.45
2017-12-17T16:03:35.033Z,15.07
2017-12-17T16:06:02.611Z,9.73
2017-12-17T16:08:30.086Z,8.85
2017-12-17T16:10:58.359Z,9.15
2017-12-17T16:13:25.877Z,9.10
2017-12-17T16:15:53.429Z,8.90
2017-12-17T16:18:21.671Z,10.98
2017-12-17T16:20:49.134Z,7.72
2017-12-17T16:23:17.381Z,8.95
2017-12-17T16:25:45.672Z,10.48
2017-12-17T16:28:13.889Z,10.40
2017-12-17T16:30:41.322Z,8.20
2017-12-17T16:33:08.755Z,8.23
2017-12-17T16:35:36.242Z,7.15
2017-12-17T16:38:04.441Z,8.77
2017-12-17T16:40:31.937Z,10.48
2017-12-17T16:42:59.425Z,9.35
2017-12-17T16:45:27.761Z,11.80
2017-12-17T16:47:55.250Z,9.23
2017-12-17T16:50:22.828Z,10.63
2017-12-17T16:52:51.096Z,11.12
2017-12-17T16:55:18.598Z,9.18
2017-12-17T16:57:46.076Z,10.25
2017-12-17T17:00:13.545Z,9.30
2017-12-17T17:02:41.780Z,8.25
2017-12-17T17:05:09.206Z,7.35
2017-12-17T17:07:36.730Z,12.02
2017-12-17T17:10:04.188Z,10.02
2017-12-17T17:12:31.626Z,8.10
2017-12-17T17:14:59.134Z,9.80
2017-12-17T17:17:26.610Z,8.98
2017-12-17T17:19:54.137Z,11.55
2017-12-17T17:22:21.620Z,8.20
2017-12-17T17:24:49.102Z,8.52
2017-12-17T17:27:17.381Z,9.57
2017-12-17T17:29:44.868Z,8.23
2017-12-17T17:32:12.323Z,7.90
2017-12-17T17:34:39.797Z,8.48
2017-12-17T17:37:07.267Z,11.35
2017-12-17T17:39:34.748Z,7.82
2017-12-17T17:42:02.240Z,10.25
2017-12-17T17:44:29.718Z,9.00
2017-12-17T17:46:57.500Z,7.72
2017-12-17T17:49:24.930Z,9.13
2017-12-17T17:51:52.524Z,10.45
2017-12-17T17:54:20.751Z,10.40
2017-12-17T17:56:48.228Z,7.62
2017-12-17T17:59:15.723Z,8.63
2017-12-17T18:01:43.198Z,10.02
2017-12-17T18:04:10.662Z,9.77
2017-12-17T18:06:38.097Z,7.50
2017-12-17T18:09:05.664Z,9.82
2017-12-17T18:11:33.143Z,9.65
2017-12-17T18:14:00.614Z,10.63
2017-12-17T18:16:28.912Z,9.73
2017-12-17T18:18:56.381Z,8.23
2017-12-17T18:21:23.846Z,8.80
2017-12-17T18:23:52.074Z,9.30
2017-12-17T18:26:19.524Z,11.35
2017-12-17T18:28:47.105Z,10.05
2017-12-17T18:31:15.349Z,9.02
2017-12-17T18:33:42.856Z,10.23
2017-12-17T18:36:11.488Z,9.77
2017-12-17T18:38:39.715Z,12.88
2017-12-17T18:41:07.224Z,11.10
2017-12-17T18:43:34.644Z,9.07
2017-12-17T18:46:02.138Z,9.18
2017-12-17T18:48:29.628Z,18.62
2017-12-17T18:50:57.112Z,15.00
2017-12-17T18:53:24.611Z,10.15
2017-12-17T18:55:52.797Z,9.68
2017-12-17T18:58:20.323Z,11.65
2017-12-17T19:00:48.155Z,9.80
2017-12-17T19:03:16.419Z,9.10
2017-12-17T19:05:44.666Z,9.45
2017-12-17T19:08:12.160Z,12.90
2017-12-17T19:10:39.694Z,12.55
2017-12-17T19:13:07.168Z,11.50
2017-12-17T19:15:34.649Z,11.30
2017-12-17T19:18:02.900Z,9.90
2017-12-17T19:20:31.160Z,10.30
2017-12-17T19:22:58.770Z,11.20
2017-12-17T19:25:26.242Z,9.90
2017-12-17T19:27:53.722Z,9.50
2017-12-17T19:30:21.997Z,10.40
2017-12-17T19:32:49.480Z,12.73
2017-12-17T19:35:17.001Z,10.80
2017-12-17T19:37:44.488Z,11.50
2017-12-17T19:40:11.968Z,10.38
2017-12-17T19:42:39.500Z,10.88
2017-12-17T19:45:07.770Z,11.18
2017-12-17T19:47:35.312Z,14.73
2017-12-17T19:50:02.861Z,9.70
2017-12-17T19:52:30.426Z,11.32
2017-12-17T19:54:57.959Z,10.07
2017-12-17T19:57:25.436Z,12.10
2017-12-17T19:59:52.915Z,9.57
2017-12-17T20:02:20.584Z,9.45
2017-12-17T20:04:48.068Z,14.15
2017-12-17T20:07:15.630Z,10.82
2017-12-17T20:09:43.247Z,10.18
2017-12-17T20:12:10.727Z,9.40
2017-12-17T20:14:38.208Z,12.48
2017-12-17T20:17:05.684Z,9.57
2017-12-17T20:19:33.212Z,10.70
2017-12-17T20:22:00.718Z,10.82
2017-12-17T20:24:28.913Z,9.65
2017-12-17T20:26:56.423Z,11.98
2017-12-17T20:29:24.667Z,10.82
2017-12-17T20:31:52.121Z,11.12
2017-12-17T20:34:20.325Z,9.43
2017-12-17T20:36:47.844Z,8.85
2017-12-17T20:39:15.330Z,11.30
2017-12-17T20:41:42.815Z,13.15
2017-12-17T20:44:11.091Z,9.90
2017-12-17T20:46:39.337Z,11.38
2017-12-17T20:49:07.043Z,10.95
2017-12-17T20:51:34.531Z,8.25
2017-12-17T20:54:02.775Z,11.00
2017-12-17T20:56:31.276Z,6.87
2017-12-17T20:58:59.528Z,8.82
2017-12-17T21:01:27.769Z,8.25
2017-12-17T21:03:55.323Z,8.60
2017-12-17T21:06:22.916Z,8.30
2017-12-17T21:08:50.445Z,8.10
2017-12-17T21:11:17.920Z,7.10
2017-12-17T21:13:45.391Z,9.45
2017-12-17T21:16:13.628Z,7.20
2017-12-17T21:18:41.099Z,8.80
2017-12-17T21:21:08.567Z,8.18
2017-12-17T21:23:36.035Z,7.20
2017-12-17T21:26:03.591Z,8.13
2017-12-17T21:28:31.088Z,14.93
2017-12-17T21:30:59.397Z,18.85
2017-12-17T21:33:26.950Z,13.32
2017-12-17T21:35:54.435Z,8.70
2017-12-17T21:38:22.670Z,10.30
2017-12-17T21:40:50.216Z,10.90
2017-12-17T21:43:17.694Z,48.58
2017-12-17T21:45:45.954Z,17.27
2017-12-17T21:48:14.183Z,7.53
2017-12-17T21:50:41.706Z,7.25
2017-12-17T21:53:09.183Z,8.32
2017-12-17T21:55:36.684Z,7.70
2017-12-17T21:58:04.178Z,8.05
2017-12-17T22:00:31.642Z,7.90
2017-12-17T22:02:59.890Z,8.48
2017-12-17T22:05:28.140Z,8.25
2017-12-17T22:07:55.848Z,8.70
2017-12-17T22:10:23.307Z,6.87
2017-12-17T22:12:50.811Z,6.37
2017-12-17T22:15:18.399Z,7.22
2017-12-17T22:17:45.904Z,10.73
2017-12-17T22:20:13.374Z,7.60
2017-12-17T22:22:40.848Z,8.50
2017-12-17T22:25:08.332Z,6.30
2017-12-17T22:27:35.807Z,8.25
2017-12-17T22:30:03.278Z,7.32
2017-12-17T22:32:30.860Z,7.35
2017-12-17T22:34:58.327Z,7.50
2017-12-17T22:37:25.809Z,9.48
2017-12-17T22:39:54.084Z,7.60
2017-12-17T22:42:21.554Z,7.95
2017-12-17T22:44:49.027Z,9.70
2017-12-17T22:47:16.592Z,8.35
2017-12-17T22:49:44.085Z,7.78
2017-12-17T22:52:11.542Z,9.13
2017-12-17T22:54:39.025Z,8.10
2017-12-17T22:57:08.076Z,7.45
2017-12-17T22:59:35.562Z,7.12
2017-12-17T23:02:03.060Z,9.00
2017-12-17T23:04:30.505Z,9.05
2017-12-17T23:06:57.944Z,7.22
2017-12-17T23:09:25.462Z,9.43
2017-12-17T23:11:53.652Z,6.60
2017-12-17T23:14:21.154Z,6.28
2017-12-17T23:16:49.385Z,7.68
2017-12-17T23:19:16.870Z,7.12
2017-12-17T23:21:44.338Z,7.05
2017-12-17T23:24:11.778Z,9.15
2017-12-17T23:26:39.212Z,6.45
2017-12-17T23:29:06.690Z,6.47
2017-12-17T23:31:34.132Z,7.55
2017-12-17T23:34:01.635Z,7.55
2017-12-17T23:36:29.056Z,5.70
2017-12-17T23:38:57.299Z,5.80
2017-12-17T23:41:24.756Z,8.73
2017-12-17T23:43:52.953Z,6.20
2017-12-17T23:46:20.505Z,7.32
2017-12-17T23:48:47.928Z,6.80
2017-12-17T23:51:15.387Z,6.62
2017-12-17T23:53:42.816Z,7.40
2017-12-17T23:56:10.243Z,6.78
2017-12-17T23:58:37.753Z,6.78
